Terminal Aerodrome Forecast
Issued by NWS

Home | Current Version | Previous Version | Text Only | Print | Product List | Glossary On
Versions: 1 2 3 4 5 6 7 8 9 10 11 12 13 14 15 16 17 18 19 20 21 22 23 24 25
695
FTUS43 KICT 242322
TAFRSL
TAF
KRSL 242322Z 2500/2524 13015G22KT P6SM BKN040
     FM250600 15016G23KT P6SM VCTS BKN020CB
     FM251600 17013KT P6SM BKN035=

USA.gov is the U.S. government's official web portal to all federal, state and local government web resources and services.